Time;durP1;ratioP1;P1;durP2;ratioP2;P2;SDS_P1;SDS_P2;PMS_P1;PMS_P2;Temp;Humidity;BMP_temperature;BMP_pressure;BME280_temperature;BME280_humidity;BME280_pressure;Samples;Min_cycle;Max_cycle;Signal;HPM_P1;HPM_P2
2021/12/05 00:22:01;;;;;;;2.08;1.42;;;;;;;3.67;76.66;98356.25;5001608;28;20073;-53
2021/12/05 00:24:37;;;;;;;2.08;1.95;;;;;;;3.62;77.01;98358.00;5004355;28;20148;-53
2021/12/05 00:27:13;;;;;;;0.45;0.45;;;;;;;3.59;76.71;98359.69;5003179;28;20959;-56
2021/12/05 00:32:48;;;;;;;3.30;0.30;;;;;;;3.61;77.10;98372.50;5004625;28;20049;-57
2021/12/05 00:38:44;;;;;;;0.35;0.30;;;;;;;3.58;76.55;98383.59;5005368;28;20140;-54
2021/12/05 00:41:29;;;;;;;0.20;0.20;;;;;;;3.55;77.22;98381.03;5003130;28;20058;-52
2021/12/05 00:57:49;;;;;;;1.45;0.63;;;;;;;3.63;76.23;98401.53;4999724;28;20049;-52
2021/12/05 01:03:36;;;;;;;1.42;1.33;;;;;;;3.64;76.01;98397.25;5004891;28;20129;-52
2021/12/05 01:09:10;;;;;;;1.40;1.17;;;;;;;3.64;75.02;98408.34;4999946;28;20046;-55
2021/12/05 01:14:24;;;;;;;1.85;1.48;;;;;;;3.64;75.38;98413.47;5004467;28;20061;-53
2021/12/05 01:16:52;;;;;;;1.52;1.42;;;;;;;3.65;75.09;98424.56;5004849;28;20050;-51
2021/12/05 01:19:22;;;;;;;0.82;0.30;;;;;;;3.65;74.41;98439.94;5007555;28;20100;-54
2021/12/05 01:21:57;;;;;;;6.28;0.68;;;;;;;3.63;75.06;98429.69;5003059;28;20061;-57
2021/12/05 01:24:37;;;;;;;0.30;0.30;;;;;;;3.65;75.73;98437.38;5003914;28;20080;-53
2021/12/05 01:27:16;;;;;;;0.40;0.20;;;;;;;3.63;75.24;98426.25;5004623;28;20045;-51
2021/12/05 01:29:52;;;;;;;0.60;0.30;;;;;;;3.66;75.50;98441.63;5001434;28;20050;-56
2021/12/05 01:32:43;;;;;;;0.60;0.30;;;;;;;3.65;75.69;98432.25;5006042;28;20092;-54
2021/12/05 01:35:51;;;;;;;0.63;0.30;;;;;;;3.65;75.42;98439.94;4986451;28;20676;-52
2021/12/05 01:38:06;;;;;;;0.60;0.40;;;;;;;3.65;74.84;98439.94;5001888;28;20160;-54
2021/12/05 01:40:53;;;;;;;0.98;0.30;;;;;;;3.65;74.70;98450.16;5002591;28;20045;-56
2021/12/05 01:46:36;;;;;;;0.30;0.20;;;;;;;3.56;74.39;98462.13;5002196;28;20046;-50
2021/12/05 01:49:16;;;;;;;2.65;2.53;;;;;;;3.52;74.73;98462.97;5014220;28;20425;-51
2021/12/05 01:51:59;;;;;;;0.32;0.32;;;;;;;3.54;74.44;98468.94;5003125;28;20058;-53
2021/12/05 01:54:44;;;;;;;0.57;0.20;;;;;;;3.55;73.84;98462.13;5004241;28;20104;-55
2021/12/05 01:57:39;;;;;;;0.25;0.20;;;;;;;3.57;73.94;98471.50;5004649;28;20123;-53
2021/12/05 02:07:41;;;;;;;0.35;0.10;;;;;;;3.59;75.21;98476.63;5012092;28;20500;-54
2021/12/05 02:11:22;;;;;;;0.70;0.70;;;;;;;3.60;74.08;98486.00;5002450;28;20108;-54
2021/12/05 02:29:23;;;;;;;1.08;0.30;;;;;;;3.57;74.54;98507.34;5002357;28;20056;-52
2021/12/05 02:41:41;;;;;;;0.95;0.40;;;;;;;3.66;74.75;98533.81;5004140;28;20100;-52
2021/12/05 02:44:25;;;;;;;;;;;;;;;3.59;73.99;98544.03;5006018;28;20050;-53
2021/12/05 02:47:01;;;;;;;0.63;0.30;;;;;;;3.61;74.45;98541.47;5007504;28;19925;-51
2021/12/05 02:49:31;;;;;;;0.50;0.30;;;;;;;3.64;74.46;98545.78;5005698;28;20104;-53
2021/12/05 02:52:04;;;;;;;0.55;0.43;;;;;;;3.64;74.26;98550.91;5006269;28;20054;-50
2021/12/05 02:54:38;;;;;;;0.70;0.40;;;;;;;3.63;74.72;98544.91;5005709;28;20523;-51
2021/12/05 02:57:08;;;;;;;0.80;0.22;;;;;;;3.68;74.32;98547.47;5006737;28;20057;-53
2021/12/05 02:59:45;;;;;;;5.05;0.45;;;;;;;3.66;74.22;98544.06;5006552;28;20054;-54
2021/12/05 03:02:16;;;;;;;0.40;0.40;;;;;;;3.65;74.08;98547.47;5006440;28;20061;-54
2021/12/05 03:04:47;;;;;;;0.65;0.38;;;;;;;3.66;74.41;98544.06;5006091;28;20112;-49
2021/12/05 03:07:25;;;;;;;1.70;1.58;;;;;;;3.67;75.11;98540.63;5005627;28;20637;-54
2021/12/05 03:09:52;;;;;;;1.42;1.33;;;;;;;3.66;75.04;98549.16;5006674;28;20053;-51
2021/12/05 03:12:19;;;;;;;0.90;0.30;;;;;;;3.62;74.66;98562.81;5008244;28;20077;-54
2021/12/05 03:14:48;;;;;;;0.88;0.88;;;;;;;3.66;75.23;98575.66;5004040;28;20058;-54
2021/12/05 03:17:16;;;;;;;2.25;1.02;;;;;;;3.66;74.88;98572.22;5004427;28;20529;-51
2021/12/05 03:19:43;;;;;;;1.63;1.52;;;;;;;3.68;75.00;98575.66;5002448;28;20571;-55
2021/12/05 03:22:10;;;;;;;0.82;0.68;;;;;;;3.65;75.42;98579.03;5006244;28;20042;-51
2021/12/05 03:24:37;;;;;;;0.82;0.82;;;;;;;3.60;75.42;98576.50;5007715;28;20057;-52
2021/12/05 03:27:04;;;;;;;1.00;0.40;;;;;;;3.62;76.04;98578.19;5002621;28;20576;-51
2021/12/05 03:29:31;;;;;;;1.50;1.30;;;;;;;3.59;75.38;98585.00;5007720;28;20112;-53
2021/12/05 03:31:58;;;;;;;4.05;0.93;;;;;;;3.59;75.82;98590.13;5007107;28;20476;-48
2021/12/05 03:34:26;;;;;;;1.30;0.40;;;;;;;3.58;75.44;98588.41;5002230;28;20133;-55
2021/12/05 03:36:55;;;;;;;0.47;0.40;;;;;;;3.55;75.80;98587.56;5002687;28;20112;-51
2021/12/05 03:39:22;;;;;;;1.63;0.30;;;;;;;3.54;76.44;98585.84;5003574;28;20112;-55
2021/12/05 03:41:52;;;;;;;1.92;0.40;;;;;;;3.51;76.35;98591.81;5002489;28;20442;-51
2021/12/05 03:44:23;;;;;;;1.13;0.50;;;;;;;3.48;75.92;98609.75;5002646;28;20062;-51
2021/12/05 03:46:51;;;;;;;2.05;0.45;;;;;;;3.48;76.42;98612.31;4999136;28;20061;-51
2021/12/05 03:49:18;;;;;;;2.30;0.30;;;;;;;3.45;75.98;98612.28;4996104;28;20108;-54
2021/12/05 03:51:49;;;;;;;0.57;0.30;;;;;;;3.43;77.21;98629.34;5006850;28;20042;-54
2021/12/05 03:54:17;;;;;;;0.80;0.20;;;;;;;3.42;76.54;98625.06;5004177;28;20061;-52
2021/12/05 03:56:44;;;;;;;1.05;0.32;;;;;;;3.40;76.12;98634.44;5003686;28;20050;-54
2021/12/05 03:59:12;;;;;;;1.65;1.55;;;;;;;3.42;76.56;98650.66;5003920;28;20505;-52
2021/12/05 04:01:40;;;;;;;4.13;0.90;;;;;;;3.41;76.35;98641.28;5006297;28;20046;-54
2021/12/05 04:04:08;;;;;;;2.30;0.60;;;;;;;3.39;76.39;98651.53;5003501;28;20054;-51
2021/12/05 04:06:36;;;;;;;0.95;0.28;;;;;;;3.41;76.71;98646.41;5002724;28;20610;-50
2021/12/05 04:09:08;;;;;;;1.48;0.43;;;;;;;3.40;76.68;98650.66;5005579;28;20054;-51
2021/12/05 04:11:40;;;;;;;0.30;0.13;;;;;;;3.41;76.42;98656.66;5002495;28;20100;-51
2021/12/05 04:14:11;;;;;;;2.70;2.10;;;;;;;3.40;76.70;98665.16;5006687;28;20050;-50
2021/12/05 04:16:39;;;;;;;0.60;0.60;;;;;;;3.45;75.55;98658.38;5003530;28;20053;-49
2021/12/05 04:19:07;;;;;;;1.85;1.42;;;;;;;3.46;75.73;98657.50;4988434;28;20117;-51
2021/12/05 04:21:36;;;;;;;0.47;0.47;;;;;;;3.42;76.00;98664.34;5003744;28;20045;-52
2021/12/05 04:24:05;;;;;;;0.65;0.50;;;;;;;3.45;75.19;98673.72;5002568;28;20050;-54
2021/12/05 04:26:32;;;;;;;1.25;1.17;;;;;;;3.45;75.65;98678.84;5005533;28;20378;-54
2021/12/05 04:28:59;;;;;;;1.48;1.38;;;;;;;3.48;75.31;98686.53;5003270;28;20066;-53
2021/12/05 04:31:26;;;;;;;0.50;0.50;;;;;;;3.50;74.61;98682.28;5003209;28;20042;-55
2021/12/05 04:33:52;;;;;;;1.70;1.33;;;;;;;3.48;75.27;98686.53;5002330;28;20065;-51
2021/12/05 04:36:20;;;;;;;1.17;0.30;;;;;;;3.53;73.86;98692.53;5007494;28;20053;-54
2021/12/05 04:38:47;;;;;;;0.75;0.30;;;;;;;3.51;74.18;98693.38;5002986;28;20054;-52
2021/12/05 04:41:15;;;;;;;0.20;0.13;;;;;;;3.53;73.84;98702.78;5003113;28;20061;-48
2021/12/05 04:43:42;;;;;;;0.30;0.30;;;;;;;3.54;74.05;98712.16;5005331;28;20057;-52
2021/12/05 04:46:12;;;;;;;1.15;1.13;;;;;;;3.56;74.36;98705.34;5002716;28;21365;-51
2021/12/05 04:48:40;;;;;;;0.47;0.32;;;;;;;3.55;73.57;98711.28;5005347;28;20046;-54
2021/12/05 04:51:08;;;;;;;0.63;0.20;;;;;;;3.58;73.51;98726.69;5003483;28;20104;-51
2021/12/05 04:53:36;;;;;;;0.40;0.40;;;;;;;3.60;74.24;98727.56;5005682;28;20053;-53
2021/12/05 04:56:03;;;;;;;0.65;0.20;;;;;;;3.61;73.86;98730.94;5005195;28;20058;-49
2021/12/05 04:58:30;;;;;;;1.15;0.40;;;;;;;3.64;73.68;98730.13;5003398;28;20088;-51
2021/12/05 05:00:58;;;;;;;0.65;0.60;;;;;;;3.60;74.48;98727.56;5001030;28;20089;-52
2021/12/05 05:03:26;;;;;;;0.73;0.73;;;;;;;3.60;74.02;98730.13;5002937;28;20370;-55
2021/12/05 05:06:04;;;;;;;1.73;1.63;;;;;;;3.62;73.94;98739.50;5000024;28;20405;-55
2021/12/05 05:08:31;;;;;;;0.63;0.30;;;;;;;3.64;74.64;98750.63;5001983;28;20057;-47
2021/12/05 05:11:02;;;;;;;0.50;0.40;;;;;;;3.63;73.90;98754.00;5018720;28;20058;-52
2021/12/05 05:13:30;;;;;;;0.88;0.22;;;;;;;3.66;74.20;98754.91;5002283;28;20057;-48
2021/12/05 05:15:57;;;;;;;0.30;0.20;;;;;;;3.65;74.38;98747.19;5001714;28;20049;-55
2021/12/05 05:18:29;;;;;;;1.50;1.40;;;;;;;3.62;73.92;98757.44;5006374;28;20446;-57
2021/12/05 05:21:09;;;;;;;1.55;1.45;;;;;;;3.63;74.02;98759.13;5001622;28;20409;-52
2021/12/05 05:23:46;;;;;;;0.55;0.55;;;;;;;3.60;74.14;98768.53;5003808;28;20065;-53
2021/12/05 05:26:45;;;;;;;1.55;1.45;;;;;;;3.60;73.65;98767.66;5003825;28;20058;-54
2021/12/05 05:40:23;;;;;;;1.48;0.30;;;;;;;3.55;74.28;98787.28;5001549;28;20116;-50
2021/12/05 05:43:08;;;;;;;1.48;1.38;;;;;;;3.55;74.06;98795.78;5003936;28;20050;-50
2021/12/05 05:46:00;;;;;;;1.05;0.40;;;;;;;3.54;74.38;98804.31;5004068;28;20109;-53
2021/12/05 05:48:42;;;;;;;0.10;0.10;;;;;;;3.55;73.59;98806.03;5003833;28;20065;-51
2021/12/05 05:51:11;;;;;;;0.35;0.28;;;;;;;3.59;73.65;98812.03;5016571;28;20049;-50
2021/12/05 05:53:38;;;;;;;0.32;0.30;;;;;;;3.54;74.11;98822.25;5002307;28;20050;-52
2021/12/05 05:56:11;;;;;;;0.40;0.32;;;;;;;3.55;74.85;98829.06;5001260;28;20049;-50
2021/12/05 05:58:43;;;;;;;0.50;0.38;;;;;;;3.57;74.15;98812.03;5002009;28;21660;-52
2021/12/05 06:01:19;;;;;;;1.52;1.42;;;;;;;3.54;74.24;98832.50;5004873;28;20054;-54
2021/12/05 06:03:47;;;;;;;1.35;1.25;;;;;;;3.53;74.21;98823.09;5006415;28;20049;-54
2021/12/05 06:06:16;;;;;;;0.60;0.20;;;;;;;3.53;73.81;98829.91;5004203;28;20046;-49
2021/12/05 06:08:44;;;;;;;2.00;0.20;;;;;;;3.52;74.30;98841.88;5006191;28;20049;-48
2021/12/05 06:11:15;;;;;;;0.40;0.28;;;;;;;3.52;73.84;98839.31;5005289;28;20519;-53
2021/12/05 06:13:42;;;;;;;0.30;0.20;;;;;;;3.55;74.01;98856.41;5005403;28;20042;-52
2021/12/05 06:16:11;;;;;;;0.70;0.40;;;;;;;3.54;73.94;98863.22;5010204;28;20050;-52
2021/12/05 06:18:38;;;;;;;0.60;0.50;;;;;;;3.55;74.26;98862.34;5009868;28;20053;-51
2021/12/05 06:21:06;;;;;;;0.30;0.22;;;;;;;3.56;73.45;98860.66;5009001;28;20058;-52
2021/12/05 06:23:34;;;;;;;0.50;0.22;;;;;;;3.55;73.38;98879.44;5006933;28;20128;-50
2021/12/05 06:26:01;;;;;;;0.60;0.30;;;;;;;3.54;73.44;98882.81;4991093;28;20473;-50
2021/12/05 06:28:34;;;;;;;0.30;0.30;;;;;;;3.57;73.70;98875.19;5007113;28;20061;-50
2021/12/05 06:31:20;;;;;;;1.02;0.52;;;;;;;3.57;74.04;98893.97;5007470;28;20050;-51
2021/12/05 06:39:41;;;;;;;1.67;0.77;;;;;;;3.59;74.22;98905.06;5008781;28;20061;-53
2021/12/05 06:42:32;;;;;;;1.60;1.50;;;;;;;3.55;73.90;98911.00;5002425;28;20053;-52
2021/12/05 06:47:41;;;;;;;1.05;0.43;;;;;;;3.57;73.94;98919.56;5005633;28;20050;-50
2021/12/05 06:50:08;;;;;;;0.50;0.50;;;;;;;3.58;74.83;98931.53;5006623;28;20057;-53
2021/12/05 06:52:42;;;;;;;0.60;0.52;;;;;;;3.55;74.02;98928.94;5007452;28;20085;-57
2021/12/05 06:55:10;;;;;;;1.83;1.73;;;;;;;3.58;74.66;98923.84;5006344;28;20405;-55
2021/12/05 06:57:37;;;;;;;0.30;0.20;;;;;;;3.59;74.15;98942.63;5005475;28;20077;-50
2021/12/05 07:00:08;;;;;;;0.55;0.38;;;;;;;3.62;74.11;98941.78;5006232;28;20058;-50
2021/12/05 07:02:35;;;;;;;1.30;0.30;;;;;;;3.61;74.18;98940.91;5005403;28;20057;-51
2021/12/05 07:05:56;;;;;;;2.58;0.40;;;;;;;3.65;74.53;98954.63;5005862;28;20049;-51
2021/12/05 07:07:49;;;;;;;0.50;0.28;;;;;;;3.62;74.02;98952.91;5009333;28;20054;-51
2021/12/05 07:10:18;;;;;;;1.52;1.42;;;;;;;3.62;74.17;98957.16;5002604;28;20057;-48
2021/12/05 07:14:12;;;;;;;0.30;0.30;;;;;;;3.64;75.00;98965.72;5005914;28;20050;-51
2021/12/05 07:15:47;;;;;;;1.85;1.63;;;;;;;3.65;74.87;98964.88;5007137;28;20054;-52
2021/12/05 07:21:25;;;;;;;0.30;0.30;;;;;;;3.66;74.19;98974.25;5035792;28;20403;-49
2021/12/05 07:24:07;;;;;;;1.02;0.50;;;;;;;3.64;74.71;98976.81;4984222;28;20054;-47
2021/12/05 07:27:08;;;;;;;0.20;0.20;;;;;;;3.68;74.79;98977.72;5009564;28;20051;-53
2021/12/05 07:40:28;;;;;;;1.38;0.45;;;;;;;3.75;74.36;98997.38;4981443;28;20129;-56
2021/12/05 07:43:03;;;;;;;1.25;0.68;;;;;;;3.75;74.37;98999.94;4983759;28;20055;-53
2021/12/05 07:45:37;;;;;;;1.40;0.63;;;;;;;3.75;74.10;99009.34;4984408;28;20046;-58
2021/12/05 07:48:11;;;;;;;2.22;0.43;;;;;;;3.76;73.94;99017.03;5011533;28;20075;-53
2021/12/05 07:50:50;;;;;;;0.57;0.57;;;;;;;3.79;74.31;99022.19;5012126;28;20676;-55
2021/12/05 07:53:25;;;;;;;3.50;0.63;;;;;;;3.77;74.19;99020.44;4979353;28;20066;-47
2021/12/05 07:55:55;;;;;;;0.30;0.17;;;;;;;3.77;74.53;99023.88;4980858;28;20108;-49
2021/12/05 07:58:45;;;;;;;0.88;0.52;;;;;;;3.75;74.48;99030.66;4983362;28;20077;-51
2021/12/05 08:15:12;;;;;;;2.88;0.95;;;;;;;3.79;74.86;99062.31;4975213;28;20038;-49
2021/12/05 08:17:39;;;;;;;2.10;0.73;;;;;;;3.82;74.46;99068.31;4979943;28;20050;-53
2021/12/05 08:20:10;;;;;;;0.73;0.30;;;;;;;3.79;74.59;99072.56;4979074;28;20102;-50
2021/12/05 08:22:37;;;;;;;1.05;0.63;;;;;;;3.80;75.19;99075.13;4976223;28;20113;-51
2021/12/05 08:25:10;;;;;;;0.75;0.50;;;;;;;3.78;74.88;99071.69;4976727;28;20117;-55
2021/12/05 08:27:41;;;;;;;2.35;1.05;;;;;;;3.77;75.12;99080.22;4979694;28;20117;-53
2021/12/05 08:30:12;;;;;;;0.90;0.60;;;;;;;3.75;75.58;99087.03;4976512;28;20053;-53
2021/12/05 08:33:12;;;;;;;2.85;0.73;;;;;;;3.73;75.20;99079.34;4978918;28;20057;-53
2021/12/05 08:41:28;;;;;;;1.67;0.90;;;;;;;3.74;75.35;99093.00;4976647;28;20453;-53
2021/12/05 08:44:26;;;;;;;0.95;0.45;;;;;;;3.75;75.33;99092.13;4965051;28;20046;-57
2021/12/05 09:08:35;;;;;;;0.90;0.68;;;;;;;3.76;75.82;99101.56;4962553;28;20051;-52
2021/12/05 09:23:39;;;;;;;2.75;1.65;;;;;;;4.27;73.77;99149.84;4953535;28;20054;-52
2021/12/05 09:28:55;;;;;;;2.47;0.75;;;;;;;4.25;74.60;99154.09;4977519;28;20506;-52
2021/12/05 09:38:28;;;;;;;1.08;0.50;;;;;;;4.27;74.62;99172.91;4967649;28;20058;-52
2021/12/05 09:40:10;;;;;;;2.17;0.63;;;;;;;4.26;75.23;99181.47;4965867;28;20113;-54
2021/12/05 10:01:27;;;;;;;2.17;1.25;;;;;;;4.32;74.26;99199.44;4952490;28;20042;-53
2021/12/05 10:06:42;;;;;;;1.02;0.65;;;;;;;4.44;74.14;99215.78;4962170;28;20046;-56
2021/12/05 10:07:38;;;;;;;2.08;1.17;;;;;;;4.45;75.01;99235.44;4953361;28;20442;-53
2021/12/05 10:10:20;;;;;;;1.48;0.60;;;;;;;4.47;74.16;99223.50;4961396;28;20051;-58
2021/12/05 10:15:53;;;;;;;1.45;0.88;;;;;;;4.50;74.39;99226.13;4963216;28;20798;-56
2021/12/05 10:18:49;;;;;;;0.45;0.45;;;;;;;4.49;75.37;99239.75;4964390;28;20055;-54
2021/12/05 10:38:28;;;;;;;1.70;0.43;;;;;;;4.37;78.28;99267.03;4976737;28;20059;-55
2021/12/05 10:41:17;;;;;;;0.60;0.50;;;;;;;4.34;79.07;99274.69;4960973;28;20062;-51
2021/12/05 10:43:48;;;;;;;0.93;0.52;;;;;;;4.31;79.08;99277.22;4965166;28;20047;-55
2021/12/05 10:46:17;;;;;;;0.80;0.45;;;;;;;4.30;79.00;99284.88;4958206;28;20644;-53
2021/12/05 10:48:48;;;;;;;1.38;0.73;;;;;;;4.33;79.02;99296.03;4961006;28;20047;-50
2021/12/05 10:51:27;;;;;;;1.85;0.75;;;;;;;4.34;79.07;99297.75;4959780;28;20101;-51
2021/12/05 10:53:56;;;;;;;1.33;0.82;;;;;;;4.39;78.91;99294.38;4960788;28;20113;-56
2021/12/05 10:56:27;;;;;;;2.50;0.77;;;;;;;4.46;78.71;99301.31;4961766;28;20054;-53
2021/12/05 10:59:07;;;;;;;2.35;0.68;;;;;;;4.47;78.71;99297.88;4956391;28;20058;-53
2021/12/05 11:01:46;;;;;;;2.42;0.75;;;;;;;4.59;78.28;99297.16;4961366;28;21170;-55
2021/12/05 11:04:18;;;;;;;1.88;0.95;;;;;;;4.62;77.62;99292.91;4960253;28;20382;-57
2021/12/05 11:07:07;;;;;;;1.33;0.85;;;;;;;4.63;77.93;99297.19;4966628;28;20047;-52
2021/12/05 11:09:36;;;;;;;7.82;1.05;;;;;;;4.67;78.16;99300.66;4961949;28;20055;-53
2021/12/05 11:12:25;;;;;;;1.13;1.05;;;;;;;4.71;77.91;99311.78;4961739;28;20110;-50
2021/12/05 11:14:55;;;;;;;2.95;1.65;;;;;;;4.76;77.52;99320.38;4973652;28;20055;-52
2021/12/05 11:17:28;;;;;;;1.75;0.50;;;;;;;4.76;77.58;99315.25;4963393;28;20474;-52
2021/12/05 11:20:03;;;;;;;2.88;0.90;;;;;;;4.77;77.28;99327.25;4963983;28;20371;-56
2021/12/05 11:22:39;;;;;;;1.88;0.52;;;;;;;4.75;77.69;99322.09;4963714;28;20679;-53
2021/12/05 11:25:11;;;;;;;1.40;0.77;;;;;;;4.76;77.92;99328.06;4965614;28;20679;-54
2021/12/05 11:27:41;;;;;;;1.33;0.45;;;;;;;4.76;77.44;99328.94;4965483;28;20124;-51
2021/12/05 11:30:30;;;;;;;;;;;;;;;4.74;77.55;99334.91;4964941;28;20039;-54
2021/12/05 11:33:00;;;;;;;1.85;0.93;;;;;;;4.73;77.33;99330.63;4967118;28;20046;-50
2021/12/05 11:35:49;;;;;;;2.42;1.08;;;;;;;4.79;77.61;99335.81;4964297;28;20051;-54
2021/12/05 11:38:19;;;;;;;1.42;1.13;;;;;;;4.79;78.01;99335.81;4965490;28;20134;-55
2021/12/05 11:40:58;;;;;;;4.38;1.23;;;;;;;4.85;77.43;99342.69;4963629;28;20086;-52
2021/12/05 11:43:29;;;;;;;1.58;0.75;;;;;;;4.89;78.04;99347.00;4959731;28;20055;-52
2021/12/05 11:46:03;;;;;;;2.00;1.15;;;;;;;4.96;77.33;99335.13;4962686;28;20055;-55
2021/12/05 11:48:34;;;;;;;1.95;0.90;;;;;;;4.97;76.72;99339.41;4966015;28;20574;-51
2021/12/05 11:51:19;;;;;;;4.10;0.75;;;;;;;4.99;77.58;99347.94;4960282;28;20098;-52
2021/12/05 11:53:50;;;;;;;0.95;0.57;;;;;;;5.00;76.90;99352.25;4962555;28;20047;-52
2021/12/05 11:56:42;;;;;;;1.45;0.85;;;;;;;5.01;76.62;99356.53;4962830;28;20061;-56
2021/12/05 11:59:15;;;;;;;1.00;0.70;;;;;;;5.05;76.59;99363.41;4960163;28;20051;-51
2021/12/05 12:02:13;;;;;;;1.77;1.08;;;;;;;5.01;76.84;99356.53;4962605;28;20039;-51
2021/12/05 12:04:56;;;;;;;1.98;1.02;;;;;;;5.00;77.89;99354.81;4966265;28;20057;-52
2021/12/05 12:07:32;;;;;;;2.67;1.02;;;;;;;5.01;78.54;99359.09;4963786;28;20109;-54
2021/12/05 12:10:10;;;;;;;2.53;1.70;;;;;;;5.03;78.02;99370.22;4967524;28;20050;-56
2021/12/05 12:12:41;;;;;;;3.25;1.48;;;;;;;5.04;78.75;99364.28;4966270;28;20412;-50
2021/12/05 12:15:08;;;;;;;2.08;1.35;;;;;;;5.08;78.11;99383.13;4970373;28;20043;-58
2021/12/05 12:17:35;;;;;;;2.03;1.13;;;;;;;5.11;78.02;99378.88;4965195;28;20055;-53
2021/12/05 12:20:04;;;;;;;3.00;1.05;;;;;;;5.19;77.60;99381.50;4968422;28;20610;-49
2021/12/05 12:22:31;;;;;;;4.05;1.08;;;;;;;5.24;77.34;99386.69;4970590;28;20105;-55
2021/12/05 12:25:03;;;;;;;3.85;1.85;;;;;;;5.23;77.35;99382.38;4964132;28;20549;-53
2021/12/05 12:27:30;;;;;;;3.55;1.25;;;;;;;5.25;77.45;99385.84;4965000;28;20466;-55
2021/12/05 12:29:59;;;;;;;2.38;0.90;;;;;;;5.21;77.76;99384.97;4969864;28;20057;-54
2021/12/05 12:32:32;;;;;;;4.13;1.55;;;;;;;5.22;77.45;99391.81;4970864;28;20399;-53
2021/12/05 12:35:06;;;;;;;1.10;0.93;;;;;;;5.19;77.56;99396.03;4971203;28;20121;-55
2021/12/05 12:37:53;;;;;;;1.45;0.80;;;;;;;5.16;78.49;99401.16;4962023;28;20730;-57
2021/12/05 12:40:43;;;;;;;1.50;0.88;;;;;;;5.13;79.01;99407.97;4969585;28;20098;-55
2021/12/05 12:43:39;;;;;;;2.60;1.15;;;;;;;5.12;79.32;99406.28;4964179;28;20105;-52
2021/12/05 12:46:30;;;;;;;2.10;0.90;;;;;;;5.06;79.30;99429.31;4964552;28;20078;-50
2021/12/05 12:49:36;;;;;;;1.75;1.15;;;;;;;5.09;79.37;99431.03;4967731;28;20138;-54
2021/12/05 12:52:15;;;;;;;3.58;1.40;;;;;;;5.08;79.05;99434.47;4969521;28;20046;-53
2021/12/05 12:54:45;;;;;;;2.50;1.08;;;;;;;5.12;79.20;99442.22;4969246;28;20118;-52
2021/12/05 12:57:20;;;;;;;3.58;1.23;;;;;;;5.13;78.45;99449.06;4967779;28;20110;-55
2021/12/05 13:00:03;;;;;;;5.68;1.33;;;;;;;5.16;78.82;99449.94;4965892;28;20502;-53
2021/12/05 13:02:52;;;;;;;2.17;1.02;;;;;;;5.14;78.62;99461.03;4963851;28;20047;-58
2021/12/05 13:05:52;;;;;;;1.02;0.63;;;;;;;5.14;78.31;99449.94;4966053;28;20546;-53
2021/12/05 13:11:15;;;;;;;4.03;1.90;;;;;;;5.14;78.63;99455.91;4969497;28;20046;-51
2021/12/05 13:13:45;;;;;;;1.98;1.08;;;;;;;5.17;78.72;99467.06;4964466;28;20047;-53
2021/12/05 13:16:16;;;;;;;3.17;1.38;;;;;;;5.17;78.51;99472.19;4968412;28;21272;-51
2021/12/05 13:18:47;;;;;;;4.57;1.45;;;;;;;5.18;79.01;99471.34;4961375;28;20808;-57
2021/12/05 13:21:29;;;;;;;2.20;0.85;;;;;;;5.18;78.91;99473.91;4966646;28;20113;-50
2021/12/05 13:23:55;;;;;;;2.00;1.50;;;;;;;5.16;78.71;99488.47;4966874;28;20106;-52
2021/12/05 13:26:39;;;;;;;6.40;1.65;;;;;;;5.14;78.90;99489.28;4963151;28;20466;-56
2021/12/05 13:29:18;;;;;;;3.20;1.05;;;;;;;5.13;78.99;99500.41;4959507;28;20062;-56
2021/12/05 13:32:06;;;;;;;3.42;1.60;;;;;;;5.17;78.89;99503.00;4963314;28;20051;-54
2021/12/05 13:34:47;;;;;;;2.80;1.50;;;;;;;5.14;79.06;99507.25;4961921;28;20047;-53
2021/12/05 13:37:37;;;;;;;2.95;1.40;;;;;;;5.19;78.85;99516.72;4960375;28;20730;-50
2021/12/05 13:40:17;;;;;;;6.90;1.42;;;;;;;5.18;78.79;99521.00;4973930;28;20062;-52
2021/12/05 13:42:52;;;;;;;2.42;1.67;;;;;;;5.21;79.21;99535.56;4964201;28;20051;-52
2021/12/05 13:45:29;;;;;;;2.47;0.95;;;;;;;5.21;79.05;99543.28;4962798;28;20058;-53
2021/12/05 13:48:15;;;;;;;4.78;1.38;;;;;;;5.21;78.67;99538.13;4962938;28;20097;-55
2021/12/05 13:50:50;;;;;;;3.78;1.65;;;;;;;5.26;78.51;99536.47;4957507;28;20051;-57
2021/12/05 13:53:20;;;;;;;2.88;1.42;;;;;;;5.31;78.72;99545.09;4960140;28;20050;-56
2021/12/05 13:56:03;;;;;;;2.92;0.90;;;;;;;5.31;78.35;99555.38;4963990;28;20050;-51
2021/12/05 13:58:41;;;;;;;6.72;1.20;;;;;;;5.36;78.72;99553.72;4962080;28;20080;-56
2021/12/05 14:01:22;;;;;;;7.25;1.08;;;;;;;5.45;77.74;99559.78;4961305;28;20058;-56
2021/12/05 14:04:04;;;;;;;3.17;1.35;;;;;;;5.45;78.80;99568.38;4963873;28;20066;-55
2021/12/05 14:06:58;;;;;;;10.05;1.45;;;;;;;5.49;77.37;99579.53;4963865;28;20047;-54
2021/12/05 14:09:30;;;;;;;3.33;0.80;;;;;;;5.49;78.19;99592.38;4964220;28;20091;-53
2021/12/05 14:12:08;;;;;;;2.25;1.13;;;;;;;5.51;77.88;99594.09;4963570;28;20055;-55
2021/12/05 14:14:42;;;;;;;3.88;1.60;;;;;;;5.52;78.38;99594.97;4963423;28;20047;-55
2021/12/05 14:17:13;;;;;;;1.70;0.95;;;;;;;5.50;78.18;99602.66;4962178;28;20081;-56
2021/12/05 14:19:43;;;;;;;2.13;0.90;;;;;;;5.55;77.21;99596.72;4960458;28;20051;-56
2021/12/05 14:22:12;;;;;;;4.53;1.08;;;;;;;5.54;78.47;99603.53;4964967;28;20063;-56
2021/12/05 14:24:42;;;;;;;5.53;0.80;;;;;;;5.49;77.87;99605.22;4961783;28;20046;-53
2021/12/05 14:27:13;;;;;;;2.00;1.35;;;;;;;5.53;77.29;99615.53;4965087;28;20054;-56
2021/12/05 14:29:41;;;;;;;3.42;0.63;;;;;;;5.55;77.27;99615.56;4964832;28;20478;-55
2021/12/05 14:32:20;;;;;;;5.32;1.17;;;;;;;5.52;77.49;99616.41;4965167;28;20046;-53
2021/12/05 14:34:49;;;;;;;1.42;0.80;;;;;;;5.55;77.05;99625.84;4967273;28;20433;-55
2021/12/05 14:37:20;;;;;;;3.17;1.25;;;;;;;5.59;76.76;99630.16;4966463;28;20051;-54
2021/12/05 14:39:48;;;;;;;;;;;;;;;5.56;76.65;99632.69;4964336;28;20045;-52
2021/12/05 14:42:22;;;;;;;2.17;0.60;;;;;;;5.64;76.67;99643.91;4961108;28;19922;-54
2021/12/05 14:44:54;;;;;;;1.73;1.10;;;;;;;5.65;76.24;99653.34;4958122;28;20070;-50
2021/12/05 14:47:24;;;;;;;3.80;1.05;;;;;;;5.68;76.33;99662.81;4961668;28;20055;-50
2021/12/05 14:49:52;;;;;;;;;;;;;;;5.64;76.52;99672.19;4963872;28;20047;-56
2021/12/05 14:52:24;;;;;;;4.22;0.80;;;;;;;5.71;75.58;99674.81;4965131;28;20355;-55
2021/12/05 14:54:52;;;;;;;3.65;0.77;;;;;;;5.75;75.81;99679.16;4962893;28;20118;-52
2021/12/05 14:57:23;;;;;;;1.60;0.80;;;;;;;5.77;76.39;99687.72;4963660;28;20051;-52
2021/12/05 15:00:00;;;;;;;1.38;0.70;;;;;;;5.78;76.20;99684.34;4967182;28;20126;-53
2021/12/05 15:02:28;;;;;;;3.65;1.30;;;;;;;5.75;76.42;99684.28;4963795;28;20113;-54
2021/12/05 15:04:54;;;;;;;2.30;0.98;;;;;;;5.74;75.39;99683.41;4965837;28;20051;-58
2021/12/05 15:07:24;;;;;;;2.72;1.33;;;;;;;5.74;75.23;99682.56;4962735;28;20134;-53
2021/12/05 15:09:53;;;;;;;4.38;1.08;;;;;;;5.73;76.13;99685.97;4966080;28;20062;-56
2021/12/05 15:12:24;;;;;;;2.28;1.33;;;;;;;5.73;76.39;99686.84;4960138;28;20105;-55
2021/12/05 15:14:53;;;;;;;1.10;0.50;;;;;;;5.73;75.08;99680.81;4965105;28;20480;-50
2021/12/05 15:17:23;;;;;;;4.50;0.85;;;;;;;5.72;75.04;99685.13;4967342;28;20764;-52
2021/12/05 15:19:53;;;;;;;2.50;0.50;;;;;;;5.72;76.22;99684.25;4963383;28;21221;-56
2021/12/05 15:22:39;;;;;;;2.30;0.98;;;;;;;5.71;75.96;99693.66;4964189;28;20438;-55
2021/12/05 15:25:10;;;;;;;1.42;0.80;;;;;;;5.73;74.91;99691.97;4965593;28;20149;-56
2021/12/05 15:27:37;;;;;;;3.08;1.05;;;;;;;5.75;76.45;99699.72;4964123;28;20047;-57
2021/12/05 15:30:16;;;;;;;3.17;0.80;;;;;;;5.76;76.62;99704.88;4962909;28;20055;-54
2021/12/05 15:32:45;;;;;;;4.65;1.55;;;;;;;5.77;76.35;99714.31;4960208;28;20054;-54
2021/12/05 15:35:15;;;;;;;2.85;0.88;;;;;;;5.76;76.93;99715.16;4962032;28;20105;-53
2021/12/05 15:38:03;;;;;;;3.47;1.25;;;;;;;5.74;76.78;99719.41;4962691;28;20118;-55
2021/12/05 15:40:33;;;;;;;2.45;1.25;;;;;;;5.77;76.89;99718.56;4966571;28;20131;-56
2021/12/05 15:43:04;;;;;;;4.35;1.08;;;;;;;5.76;76.79;99722.88;4968936;28;20094;-55
2021/12/05 15:45:32;;;;;;;6.28;0.70;;;;;;;5.78;76.79;99733.16;4967749;28;20549;-56
2021/12/05 15:47:59;;;;;;;4.13;1.13;;;;;;;5.77;76.63;99731.41;4968563;28;20050;-55
2021/12/05 15:50:28;;;;;;;7.88;1.75;;;;;;;5.80;76.35;99741.75;4962951;28;20160;-53
2021/12/05 15:53:02;;;;;;;6.80;1.13;;;;;;;5.81;76.81;99756.31;4967294;28;20050;-53
2021/12/05 15:55:33;;;;;;;3.83;1.15;;;;;;;5.80;76.57;99757.16;4962358;28;20557;-52
2021/12/05 15:58:08;;;;;;;4.15;0.80;;;;;;;5.78;76.20;99746.00;4978234;28;20098;-55
2021/12/05 16:00:39;;;;;;;1.60;0.50;;;;;;;5.69;75.96;99751.03;4967554;28;20054;-56
2021/12/05 16:03:10;;;;;;;2.50;0.57;;;;;;;5.65;75.78;99758.69;4964647;28;20055;-58